Time;durP1;ratioP1;P1;durP2;ratioP2;P2;SDS_P1;SDS_P2;PMS_P1;PMS_P2;Temp;Humidity;BMP_temperature;BMP_pressure;BME280_temperature;BME280_humidity;BME280_pressure;Samples;Min_cycle;Max_cycle;Signal;HPM_P1;HPM_P2
2021/05/10 00:00:34;;;;;;;9.82;3.22;;;;;;;7.30;50.22;100616.25;5027475;28;20223;-73
2021/05/10 00:03:00;;;;;;;5.38;3.20;;;;;;;7.38;49.61;100642.66;4995397;28;20136;-74
2021/05/10 00:05:26;;;;;;;5.82;3.13;;;;;;;7.12;50.01;100623.16;5027992;28;20131;-74
2021/05/10 00:07:52;;;;;;;13.43;4.05;;;;;;;7.20;50.58;100622.31;5009440;28;20044;-70
2021/05/10 00:10:17;;;;;;;5.10;2.90;;;;;;;7.31;50.66;100649.66;5027885;28;20115;-74
2021/05/10 00:12:43;;;;;;;6.82;2.97;;;;;;;7.29;50.68;100654.06;5027896;28;20076;-74
2021/05/10 00:15:10;;;;;;;8.10;3.50;;;;;;;7.19;51.07;100651.31;5026531;28;20469;-74
2021/05/10 00:17:36;;;;;;;11.90;3.63;;;;;;;7.00;51.25;100637.13;5008593;28;20060;-74
2021/05/10 00:20:03;;;;;;;10.82;3.50;;;;;;;7.15;51.14;100662.72;5011100;28;20045;-76
2021/05/10 00:22:30;;;;;;;7.07;3.55;;;;;;;7.03;51.85;100649.44;5029542;28;20133;-74
2021/05/10 00:24:55;;;;;;;10.48;3.47;;;;;;;7.06;51.68;100671.47;4994322;28;20191;-70
2021/05/10 00:27:21;;;;;;;6.55;3.30;;;;;;;7.01;51.69;100678.44;5010115;28;20456;-72
2021/05/10 00:29:47;;;;;;;6.70;3.47;;;;;;;7.03;51.57;100684.63;5010792;28;20393;-74
2021/05/10 00:32:13;;;;;;;7.38;3.90;;;;;;;7.04;51.33;100677.59;5027746;28;20164;-75
2021/05/10 00:34:39;;;;;;;8.68;3.33;;;;;;;7.00;51.21;100679.31;5026814;28;20041;-73
2021/05/10 00:37:05;;;;;;;8.63;3.13;;;;;;;7.03;50.94;100686.34;4994648;28;20087;-74
2021/05/10 00:39:30;;;;;;;10.13;3.03;;;;;;;6.96;51.13;100692.47;4994961;28;20053;-74
2021/05/10 00:41:57;;;;;;;11.77;3.00;;;;;;;6.95;50.82;100688.94;5011172;28;20050;-73
2021/05/10 00:44:23;;;;;;;8.68;3.30;;;;;;;6.89;50.90;100694.13;5009102;28;20041;-70
2021/05/10 00:46:52;;;;;;;7.82;2.80;;;;;;;6.87;50.98;100692.34;5011254;28;20378;-74
2021/05/10 00:49:18;;;;;;;10.95;3.03;;;;;;;6.81;50.62;100692.31;5028640;28;20041;-74
2021/05/10 00:51:44;;;;;;;9.30;3.30;;;;;;;6.81;50.96;100705.50;5027121;28;20051;-70
2021/05/10 00:54:10;;;;;;;5.50;2.85;;;;;;;6.81;51.15;100703.72;5028857;28;20471;-72
2021/05/10 00:56:36;;;;;;;7.78;3.17;;;;;;;6.83;50.26;100709.00;5010897;28;20125;-73
2021/05/10 00:59:02;;;;;;;10.48;2.85;;;;;;;6.79;50.62;100707.22;5010675;28;20390;-74
2021/05/10 01:01:27;;;;;;;6.00;2.65;;;;;;;6.72;50.84;100703.63;5009007;28;20075;-74
2021/05/10 01:03:54;;;;;;;6.47;2.42;;;;;;;6.80;50.28;100714.28;5010647;28;20069;-74
2021/05/10 01:06:21;;;;;;;10.85;2.70;;;;;;;6.71;51.07;100720.31;5010845;28;20048;-74
2021/05/10 01:08:47;;;;;;;5.85;2.60;;;;;;;6.68;51.19;100714.16;4993559;28;20038;-69
2021/05/10 01:11:13;;;;;;;5.85;2.67;;;;;;;6.58;51.33;100700.00;5027374;28;20041;-74
2021/05/10 01:13:39;;;;;;;4.40;2.17;;;;;;;6.66;51.16;100726.41;4994613;28;20501;-73
2021/05/10 01:16:05;;;;;;;7.03;3.03;;;;;;;6.64;50.70;100728.16;4994351;28;20068;-74
2021/05/10 01:18:32;;;;;;;4.97;2.80;;;;;;;6.61;51.43;100734.25;5026119;28;20056;-73
2021/05/10 01:20:59;;;;;;;6.15;2.75;;;;;;;6.63;50.66;100729.91;5010823;28;20041;-74
2021/05/10 01:23:25;;;;;;;9.27;2.88;;;;;;;6.53;51.68;100727.16;5026973;28;20045;-74
2021/05/10 01:25:51;;;;;;;7.20;3.22;;;;;;;6.45;51.40;100713.88;5010427;28;20558;-73
2021/05/10 01:28:17;;;;;;;4.97;2.38;;;;;;;6.57;50.20;100743.00;4992355;28;20128;-76
2021/05/10 01:30:48;;;;;;;8.73;2.58;;;;;;;6.61;50.95;100749.19;5028359;28;20041;-74
2021/05/10 01:33:14;;;;;;;7.75;2.55;;;;;;;6.45;50.55;100726.19;5027955;28;20045;-70
2021/05/10 01:35:43;;;;;;;3.72;2.30;;;;;;;6.58;49.41;100760.59;5008197;28;20049;-72
2021/05/10 01:38:09;;;;;;;6.13;2.17;;;;;;;6.59;50.23;100765.00;5010295;28;20493;-72
2021/05/10 01:40:36;;;;;;;7.75;2.45;;;;;;;6.19;49.98;100702.16;4993839;28;20532;-73
2021/05/10 01:43:03;;;;;;;4.05;2.60;;;;;;;6.51;50.16;100750.84;5025704;28;20045;-72
2021/05/10 01:45:29;;;;;;;4.95;2.58;;;;;;;6.60;49.41;100779.94;5027610;28;20100;-74
2021/05/10 01:48:01;;;;;;;4.50;2.38;;;;;;;6.43;49.77;100751.59;5027550;28;20049;-73
2021/05/10 01:50:27;;;;;;;8.60;2.30;;;;;;;6.54;50.52;100771.97;4977698;28;20176;-73
2021/05/10 01:52:53;;;;;;;2.92;2.47;;;;;;;6.56;50.18;100793.06;5025804;28;20276;-75
2021/05/10 01:55:23;;;;;;;5.72;2.30;;;;;;;6.57;49.57;100785.16;5027467;28;20041;-73
2021/05/10 01:57:50;;;;;;;4.45;2.70;;;;;;;6.39;50.11;100769.13;5010111;28;20111;-73
2021/05/10 02:00:19;;;;;;;6.07;2.70;;;;;;;6.51;49.50;100763.13;5009686;28;20073;-72
2021/05/10 02:02:45;;;;;;;3.95;2.38;;;;;;;6.60;49.30;100776.44;5014006;28;20052;-74
2021/05/10 02:05:19;;;;;;;9.60;2.20;;;;;;;6.66;48.62;100789.66;5030761;28;20038;-73
2021/05/10 02:07:47;;;;;;;3.97;2.00;;;;;;;6.66;48.71;100787.03;5012241;28;20087;-72
2021/05/10 02:10:16;;;;;;;4.95;2.25;;;;;;;6.65;49.19;100796.66;5013952;28;20053;-74
2021/05/10 02:12:50;;;;;;;6.53;2.22;;;;;;;6.67;48.43;100797.59;5014091;28;20049;-73
2021/05/10 02:15:17;;;;;;;5.85;2.50;;;;;;;6.69;48.28;100802.88;4995422;28;20041;-74
2021/05/10 02:17:43;;;;;;;3.25;2.20;;;;;;;6.55;48.69;100776.34;5013879;28;20107;-73
2021/05/10 02:20:09;;;;;;;5.40;2.35;;;;;;;6.66;48.81;100802.84;5031775;28;20033;-72
2021/05/10 02:22:35;;;;;;;4.65;2.20;;;;;;;6.64;48.29;100804.59;5013565;28;20132;-69
2021/05/10 02:25:01;;;;;;;4.15;2.22;;;;;;;6.69;48.87;100810.78;5012178;28;20501;-71
2021/05/10 02:27:27;;;;;;;3.83;2.53;;;;;;;6.75;48.25;100822.28;5031630;28;20136;-72
2021/05/10 02:29:53;;;;;;;5.25;2.20;;;;;;;6.73;48.00;100825.78;5007284;28;20045;-73
2021/05/10 02:32:19;;;;;;;3.90;2.50;;;;;;;6.76;47.45;100823.19;5011532;28;20520;-69
2021/05/10 02:34:45;;;;;;;3.28;2.00;;;;;;;6.80;47.17;100830.25;5031188;28;20395;-73
2021/05/10 02:37:12;;;;;;;3.97;1.83;;;;;;;6.90;47.67;100832.13;5013364;28;20524;-73
2021/05/10 02:39:39;;;;;;;4.68;2.33;;;;;;;6.81;47.85;100826.75;5030911;28;20037;-72
2021/05/10 02:42:05;;;;;;;3.72;2.05;;;;;;;6.77;47.30;100812.63;5028981;28;20461;-72
2021/05/10 02:44:31;;;;;;;7.00;2.97;;;;;;;6.96;46.79;100846.25;5030917;28;20046;-72
2021/05/10 02:46:57;;;;;;;4.05;1.90;;;;;;;7.03;47.23;100853.38;5031524;28;20409;-73
2021/05/10 02:49:23;;;;;;;3.45;2.25;;;;;;;7.10;46.99;100865.75;5028655;28;20162;-72
2021/05/10 02:51:49;;;;;;;4.00;2.08;;;;;;;7.07;46.69;100854.28;5028659;28;20491;-72
2021/05/10 02:54:30;;;;;;;2.72;2.00;;;;;;;7.04;46.99;100831.41;4999274;28;20344;-72
2021/05/10 02:56:55;;;;;;;9.32;2.38;;;;;;;7.19;46.97;100862.31;5025556;28;20081;-73
2021/05/10 02:59:21;;;;;;;3.47;1.95;;;;;;;7.17;47.21;100875.53;5010974;28;20458;-72
2021/05/10 03:01:47;;;;;;;4.45;2.45;;;;;;;7.07;46.68;100847.25;5010738;28;20044;-72
2021/05/10 03:04:13;;;;;;;4.00;2.35;;;;;;;7.20;47.07;100879.94;5028787;28;20380;-73
2021/05/10 03:06:38;;;;;;;4.35;2.38;;;;;;;7.06;46.84;100857.78;5026710;28;20080;-73
2021/05/10 03:09:04;;;;;;;4.40;2.20;;;;;;;7.24;47.18;100879.97;5029417;28;20041;-73
2021/05/10 03:11:30;;;;;;;4.35;2.00;;;;;;;7.21;47.16;100869.41;5029275;28;20049;-72
2021/05/10 03:13:56;;;;;;;4.68;2.08;;;;;;;7.36;46.17;100884.53;5010464;28;20037;-69
2021/05/10 03:16:22;;;;;;;4.95;2.40;;;;;;;7.40;46.27;100894.22;5006059;28;20054;-73
2021/05/10 03:18:48;;;;;;;5.45;2.58;;;;;;;7.41;46.61;100909.19;5023855;28;20053;-72
2021/05/10 03:21:14;;;;;;;6.35;2.13;;;;;;;7.39;46.83;100888.06;5006843;28;20049;-72
2021/05/10 03:23:39;;;;;;;5.47;2.38;;;;;;;7.45;46.82;100911.88;5005179;28;20037;-71
2021/05/10 03:26:05;;;;;;;3.45;1.88;;;;;;;7.39;46.86;100877.50;5008405;28;20050;-74
2021/05/10 03:28:31;;;;;;;5.63;2.30;;;;;;;7.40;45.88;100884.53;5010487;28;20038;-72
2021/05/10 03:30:57;;;;;;;4.05;2.40;;;;;;;7.57;45.85;100908.47;5010377;28;20156;-73
2021/05/10 03:33:23;;;;;;;9.75;3.28;;;;;;;7.56;45.45;100909.34;5007026;28;20521;-73
2021/05/10 03:35:48;;;;;;;10.43;2.28;;;;;;;7.63;45.39;100913.81;5010084;28;20124;-74
2021/05/10 03:38:14;;;;;;;4.43;2.40;;;;;;;7.58;45.08;100902.31;5025433;28;20042;-73
2021/05/10 03:40:40;;;;;;;5.28;2.03;;;;;;;7.65;45.21;100902.41;5008614;28;20064;-70
2021/05/10 03:43:06;;;;;;;8.90;2.28;;;;;;;7.79;44.90;100919.25;5007206;28;20498;-73
2021/05/10 03:45:34;;;;;;;4.03;2.13;;;;;;;7.65;44.83;100902.41;5010506;28;20037;-73
2021/05/10 03:48:01;;;;;;;8.43;2.40;;;;;;;7.80;44.98;100921.00;5008871;28;20053;-73
2021/05/10 03:50:26;;;;;;;4.35;2.28;;;;;;;7.59;45.00;100882.97;5006875;28;20119;-73
2021/05/10 03:52:52;;;;;;;5.78;1.98;;;;;;;7.95;44.75;100944.06;5010250;28;20409;-74
2021/05/10 03:55:21;;;;;;;4.68;2.13;;;;;;;8.05;44.52;100944.16;5010183;28;20038;-73
2021/05/10 03:57:47;;;;;;;9.55;2.00;;;;;;;7.98;44.68;100931.75;5009699;28;20045;-70
2021/05/10 04:00:16;;;;;;;6.13;2.47;;;;;;;8.04;44.39;100941.50;5007262;28;20046;-72
2021/05/10 04:02:43;;;;;;;7.63;3.17;;;;;;;8.20;44.22;100956.59;5008711;28;20153;-73
2021/05/10 04:05:29;;;;;;;5.00;2.13;;;;;;;8.18;44.14;100942.47;5009937;28;20048;-74
2021/05/10 04:08:08;;;;;;;6.53;2.85;;;;;;;8.16;43.81;100939.81;5009552;28;20045;-72
2021/05/10 04:10:42;;;;;;;5.80;2.78;;;;;;;8.37;43.88;100962.94;5009665;28;20111;-73
2021/05/10 04:15:52;;;;;;;6.03;2.60;;;;;;;8.34;43.45;100952.34;5024918;28;20054;-72
2021/05/10 04:18:20;;;;;;;5.28;2.25;;;;;;;8.40;43.86;100962.97;5006389;28;20046;-72
2021/05/10 04:20:46;;;;;;;3.67;2.17;;;;;;;8.52;43.99;100953.38;5009372;28;20053;-74
2021/05/10 04:23:16;;;;;;;6.35;2.17;;;;;;;8.58;43.33;100953.41;5007739;28;20048;-74
2021/05/10 04:25:46;;;;;;;5.65;2.03;;;;;;;8.64;44.07;100956.09;5007861;28;20088;-70
2021/05/10 04:28:13;;;;;;;4.85;1.90;;;;;;;8.69;43.54;100959.66;5008106;28;20041;-73
2021/05/10 04:30:40;;;;;;;5.53;2.17;;;;;;;8.75;43.56;100962.31;5008080;28;20046;-74
2021/05/10 04:33:06;;;;;;;7.03;2.88;;;;;;;8.67;43.22;100961.38;5007497;28;20073;-70
2021/05/10 04:35:33;;;;;;;7.18;2.00;;;;;;;8.74;43.21;100976.44;5008141;28;20041;-74
2021/05/10 04:38:06;;;;;;;6.82;2.00;;;;;;;8.68;43.05;100951.72;5009357;28;20473;-74
2021/05/10 04:40:32;;;;;;;5.57;2.40;;;;;;;8.81;43.00;100959.72;5024233;28;20046;-72
2021/05/10 04:42:58;;;;;;;7.00;1.92;;;;;;;8.93;43.58;100972.13;5007240;28;20167;-73
2021/05/10 04:45:24;;;;;;;4.90;2.08;;;;;;;8.99;43.42;100958.94;5008943;28;20038;-71
2021/05/10 04:47:49;;;;;;;5.40;1.83;;;;;;;9.03;42.81;100955.44;5023857;28;20057;-75
2021/05/10 04:50:16;;;;;;;4.93;1.98;;;;;;;9.11;43.04;100965.16;5007552;28;20049;-70
2021/05/10 04:52:42;;;;;;;5.68;2.25;;;;;;;9.10;42.37;100971.34;5008663;28;20124;-73
2021/05/10 04:55:09;;;;;;;4.03;2.00;;;;;;;9.14;42.44;100957.25;5007744;28;20168;-72
2021/05/10 04:57:35;;;;;;;2.85;1.95;;;;;;;9.32;42.64;100965.28;5007764;28;20588;-73
2021/05/10 05:00:03;;;;;;;4.25;1.80;;;;;;;9.23;41.75;100945.84;5006581;28;20076;-72
2021/05/10 05:02:30;;;;;;;3.65;1.80;;;;;;;9.41;42.48;100965.31;4989417;28;20065;-74
2021/05/10 05:04:56;;;;;;;4.78;2.00;;;;;;;9.47;42.34;100967.97;5006466;28;20046;-72
2021/05/10 05:07:22;;;;;;;4.90;1.83;;;;;;;9.48;42.12;100947.69;5005577;28;20125;-68
2021/05/10 05:09:47;;;;;;;7.20;1.85;;;;;;;9.71;41.78;100958.34;5005997;28;20302;-72
2021/05/10 05:12:13;;;;;;;9.88;1.73;;;;;;;9.62;42.06;100935.38;5006864;28;20363;-73
2021/05/10 05:14:39;;;;;;;3.78;1.70;;;;;;;9.77;41.44;100964.53;5006459;28;20529;-72
2021/05/10 05:17:05;;;;;;;3.85;1.60;;;;;;;9.77;41.26;100950.41;5019333;28;20148;-72
2021/05/10 05:19:31;;;;;;;6.90;1.92;;;;;;;9.87;41.58;100965.44;5005224;28;20042;-72
2021/05/10 05:21:57;;;;;;;4.70;1.30;;;;;;;9.99;41.37;100971.66;5007354;28;20495;-74
2021/05/10 05:24:23;;;;;;;3.58;1.83;;;;;;;10.05;41.37;100966.38;5007386;28;20073;-73
2021/05/10 05:26:49;;;;;;;3.80;1.60;;;;;;;10.19;40.75;100979.63;5005053;28;20257;-73
2021/05/10 05:29:17;;;;;;;6.18;1.98;;;;;;;10.22;41.70;100974.34;5006844;28;20482;-75
2021/05/10 05:31:43;;;;;;;10.98;2.00;;;;;;;10.19;40.64;100966.38;5008344;28;20053;-74
2021/05/10 05:34:08;;;;;;;3.50;1.88;;;;;;;10.22;41.41;100950.50;5005990;28;20044;-72
2021/05/10 05:36:34;;;;;;;3.50;1.73;;;;;;;10.31;40.38;100969.03;5008058;28;20068;-74
2021/05/10 05:39:00;;;;;;;5.47;1.75;;;;;;;10.41;40.29;100976.13;5023536;28;20546;-75
2021/05/10 05:41:28;;;;;;;6.05;1.80;;;;;;;10.45;39.94;100983.19;4990523;28;20045;-75
2021/05/10 05:43:54;;;;;;;3.35;1.80;;;;;;;10.50;40.38;100995.56;4988788;28;20096;-74
2021/05/10 05:46:26;;;;;;;2.63;1.58;;;;;;;10.58;40.41;100990.25;5023050;28;20050;-73
2021/05/10 05:48:52;;;;;;;3.55;1.80;;;;;;;10.63;40.65;100986.72;5008136;28;20050;-75
2021/05/10 05:51:18;;;;;;;4.07;2.63;;;;;;;10.74;40.58;100999.97;5006361;28;20147;-74
2021/05/10 05:53:44;;;;;;;3.53;1.90;;;;;;;10.78;40.64;100994.66;5007254;28;20476;-74
2021/05/10 05:56:10;;;;;;;6.95;2.00;;;;;;;10.86;40.19;100998.19;5006758;28;20490;-75
2021/05/10 05:58:36;;;;;;;8.75;1.75;;;;;;;10.83;38.83;101000.84;4990394;28;20049;-73
2021/05/10 06:01:03;;;;;;;6.35;1.80;;;;;;;10.85;39.32;100996.44;5006596;28;20088;-74
2021/05/10 06:03:28;;;;;;;5.85;1.50;;;;;;;10.84;39.74;100991.13;4991038;28;20095;-75
2021/05/10 06:05:54;;;;;;;5.15;1.60;;;;;;;10.95;40.01;101010.56;5023239;28;20525;-74
2021/05/10 06:08:20;;;;;;;4.05;1.80;;;;;;;10.88;39.71;100980.47;5005720;28;20064;-71
2021/05/10 06:10:47;;;;;;;3.70;1.80;;;;;;;11.04;39.21;101002.59;5022248;28;20064;-74
2021/05/10 06:13:13;;;;;;;7.10;1.83;;;;;;;11.18;39.76;101001.66;5006535;28;20462;-74
2021/05/10 06:15:39;;;;;;;2.15;1.48;;;;;;;11.24;38.87;101006.06;5008883;28;20049;-74
2021/05/10 06:18:10;;;;;;;2.75;1.42;;;;;;;11.31;38.48;101005.16;5024516;28;20051;-74
2021/05/10 06:20:36;;;;;;;3.72;1.80;;;;;;;11.20;38.36;100997.22;5009866;28;20053;-74
2021/05/10 06:23:03;;;;;;;4.05;1.63;;;;;;;11.41;39.65;101017.50;5027605;28;20041;-75
2021/05/10 06:25:29;;;;;;;5.78;1.40;;;;;;;11.47;37.21;101005.09;5008009;28;20061;-72
2021/05/10 06:27:54;;;;;;;2.58;1.50;;;;;;;11.53;38.04;101015.69;5025710;28;20444;-74
2021/05/10 06:30:21;;;;;;;4.03;1.73;;;;;;;11.52;36.92;101007.72;4993781;28;20049;-74
2021/05/10 06:32:49;;;;;;;5.30;1.70;;;;;;;11.62;36.76;101013.03;5026380;28;20045;-73
2021/05/10 06:35:16;;;;;;;3.65;1.60;;;;;;;11.64;36.32;101010.38;5025307;28;20045;-73
2021/05/10 06:37:42;;;;;;;2.15;1.45;;;;;;;11.61;36.15;101002.41;5025649;28;20053;-74
2021/05/10 06:40:09;;;;;;;7.05;1.60;;;;;;;11.64;35.84;101007.72;5026850;28;20171;-74
2021/05/10 06:42:36;;;;;;;1.98;1.45;;;;;;;11.64;34.96;101008.59;5024511;28;20103;-69
2021/05/10 06:45:03;;;;;;;2.30;1.50;;;;;;;11.49;34.56;100965.25;5027003;28;20120;-74
2021/05/10 06:47:30;;;;;;;4.45;1.48;;;;;;;11.73;35.61;101007.66;5029744;28;20064;-73
2021/05/10 06:49:55;;;;;;;3.00;1.77;;;;;;;11.84;35.64;101012.06;5031276;28;20422;-73
2021/05/10 06:52:21;;;;;;;2.08;1.38;;;;;;;11.90;34.71;100984.53;5028810;28;20104;-72
2021/05/10 06:54:47;;;;;;;3.38;1.80;;;;;;;12.21;35.06;100996.72;5033004;28;20037;-81
2021/05/10 06:57:13;;;;;;;3.10;1.40;;;;;;;12.31;35.47;100995.78;5013620;28;20053;-83
2021/05/10 06:59:39;;;;;;;2.55;1.60;;;;;;;12.69;35.20;100994.56;5012675;28;20044;-72
2021/05/10 07:02:06;;;;;;;2.65;1.45;;;;;;;12.96;34.04;100998.75;5030036;28;20498;-83
2021/05/10 07:04:32;;;;;;;2.45;1.90;;;;;;;13.38;33.22;100996.50;5031304;28;20046;-81
2021/05/10 07:06:58;;;;;;;5.07;1.80;;;;;;;13.86;32.56;100997.69;5029665;28;20056;-81
2021/05/10 07:09:24;;;;;;;4.32;1.80;;;;;;;14.24;32.57;100998.03;5011771;28;20053;-82
2021/05/10 07:11:50;;;;;;;6.25;1.80;;;;;;;14.61;32.55;100995.66;5013126;28;20060;-80
2021/05/10 07:14:16;;;;;;;2.00;1.48;;;;;;;14.66;31.45;100999.13;4996786;28;20041;-82
2021/05/10 07:16:42;;;;;;;4.35;1.75;;;;;;;15.23;31.87;101004.31;5012625;28;20053;-83
2021/05/10 07:19:08;;;;;;;3.78;1.80;;;;;;;15.58;31.39;101003.66;4994240;28;20041;-81
2021/05/10 07:21:36;;;;;;;2.80;1.52;;;;;;;15.57;30.75;101008.13;5030667;28;20083;-81
2021/05/10 07:24:02;;;;;;;4.18;1.73;;;;;;;15.87;31.19;101003.91;5030830;28;20055;-84
2021/05/10 07:26:28;;;;;;;8.90;1.92;;;;;;;16.22;30.51;101004.00;5027147;28;20513;-72
2021/05/10 07:28:55;;;;;;;3.72;1.58;;;;;;;16.36;30.65;101001.88;5011824;28;20048;-72
2021/05/10 07:31:21;;;;;;;2.00;1.40;;;;;;;16.15;30.04;100999.72;5012285;28;20041;-72
2021/05/10 07:33:47;;;;;;;2.13;1.30;;;;;;;16.24;29.68;101010.19;5012019;28;20541;-71
2021/05/10 07:36:13;;;;;;;3.47;1.70;;;;;;;16.46;29.39;100998.09;5010045;28;20188;-76
2021/05/10 07:38:38;;;;;;;4.50;1.80;;;;;;;17.09;29.46;101004.50;4995228;28;20047;-70
2021/05/10 07:41:04;;;;;;;10.68;1.65;;;;;;;16.91;28.48;101002.28;4995340;28;20060;-70
2021/05/10 07:43:30;;;;;;;3.22;1.80;;;;;;;17.22;27.85;101009.47;4995331;28;20045;-71
2021/05/10 07:45:56;;;;;;;3.22;1.55;;;;;;;17.93;27.94;101011.00;5010482;28;20494;-75
2021/05/10 07:48:22;;;;;;;4.25;2.00;;;;;;;18.22;27.79;101018.16;5028160;28;20501;-74
2021/05/10 07:50:48;;;;;;;4.07;1.70;;;;;;;18.44;26.91;101018.41;5001914;28;20072;-74
2021/05/10 07:53:15;;;;;;;3.05;1.70;;;;;;;18.45;27.09;101001.34;4996525;28;20045;-70
2021/05/10 07:55:41;;;;;;;2.58;1.88;;;;;;;19.75;26.64;101003.91;4979280;28;20088;-71
2021/05/10 07:58:08;;;;;;;6.00;1.88;;;;;;;20.05;25.77;100994.69;5010424;28;20045;-72
2021/05/10 08:00:40;;;;;;;1.70;1.52;;;;;;;20.98;24.22;101007.91;4995444;28;20048;-69
2021/05/10 08:03:15;;;;;;;2.55;1.77;;;;;;;21.94;23.80;101018.88;5012071;28;20033;-71
2021/05/10 08:05:43;;;;;;;5.57;1.70;;;;;;;22.82;23.07;101016.34;5015092;28;20065;-70
2021/05/10 08:08:26;;;;;;;3.83;1.55;;;;;;;23.96;21.75;101023.84;5002018;28;20139;-73
2021/05/10 08:11:07;;;;;;;5.85;2.42;;;;;;;24.18;21.03;101013.56;4997386;28;20439;-73
2021/05/10 08:13:42;;;;;;;2.58;1.60;;;;;;;24.01;21.28;101021.72;4989188;28;20040;-71
2021/05/10 08:16:08;;;;;;;5.32;1.73;;;;;;;25.30;20.23;101025.06;5019918;28;20049;-71
2021/05/10 08:18:41;;;;;;;4.80;1.70;;;;;;;25.55;19.91;101014.44;5004719;28;20084;-71
2021/05/10 08:21:08;;;;;;;9.80;1.90;;;;;;;26.43;19.22;101025.13;5035938;28;20405;-71
2021/05/10 08:23:35;;;;;;;5.72;1.50;;;;;;;25.80;19.30;101020.06;5003352;28;20144;-69
2021/05/10 08:26:01;;;;;;;5.90;1.60;;;;;;;27.10;19.01;101026.03;5019626;28;20057;-70
2021/05/10 08:28:27;;;;;;;3.83;1.88;;;;;;;27.83;17.68;101025.44;5020532;28;20055;-69
2021/05/10 08:30:54;;;;;;;2.72;1.60;;;;;;;29.03;17.33;101021.91;5042714;28;20051;-71
2021/05/10 08:33:20;;;;;;;2.78;1.42;;;;;;;28.09;17.77;101029.03;5038781;28;20059;-71
2021/05/10 08:35:48;;;;;;;1.65;1.55;;;;;;;29.95;16.67;101049.31;5038731;28;20132;-71
2021/05/10 08:38:14;;;;;;;7.50;1.60;;;;;;;30.18;15.98;101035.59;5002763;28;20132;-71
2021/05/10 08:40:39;;;;;;;5.40;1.73;;;;;;;29.14;15.79;101035.63;5002539;28;20046;-72
2021/05/10 08:43:23;;;;;;;6.13;1.75;;;;;;;29.07;16.22;101031.63;5021163;28;20127;-71
2021/05/10 08:45:54;;;;;;;1.42;1.33;;;;;;;30.42;15.76;101041.81;5011662;28;20421;-70
2021/05/10 08:48:25;;;;;;;6.30;1.80;;;;;;;31.15;15.02;101059.34;5010898;28;20100;-70
2021/05/10 08:50:52;;;;;;;2.23;1.70;;;;;;;31.42;14.81;101046.06;4998310;28;20596;-70
2021/05/10 08:53:39;;;;;;;6.10;2.03;;;;;;;30.09;15.54;101044.50;5032716;28;20052;-71
2021/05/10 08:56:05;;;;;;;8.98;1.85;;;;;;;31.18;14.69;101039.91;5009757;28;20497;-71
2021/05/10 08:58:41;;;;;;;2.33;1.60;;;;;;;32.17;14.28;101039.38;5008859;28;20544;-70
2021/05/10 09:01:07;;;;;;;3.47;1.90;;;;;;;32.52;14.75;101055.47;5010405;28;20049;-71
2021/05/10 09:03:40;;;;;;;3.22;1.33;;;;;;;30.40;15.24;101045.63;5028441;28;20462;-71
2021/05/10 09:06:11;;;;;;;3.78;1.40;;;;;;;30.50;15.04;101038.44;4976035;28;20045;-71
2021/05/10 09:08:42;;;;;;;4.43;1.60;;;;;;;30.95;14.37;101037.38;5027994;28;20049;-71
2021/05/10 09:11:10;;;;;;;4.37;1.20;;;;;;;29.86;15.49;101031.78;4994106;28;20081;-70
2021/05/10 09:13:43;;;;;;;2.58;1.70;;;;;;;28.87;15.80;100987.69;5025912;28;20111;-72
2021/05/10 09:16:11;;;;;;;3.08;1.60;;;;;;;29.98;15.07;101025.31;5027327;28;20053;-75
2021/05/10 09:18:38;;;;;;;4.50;1.90;;;;;;;31.84;14.54;101042.34;5027784;28;20045;-71
2021/05/10 09:21:18;;;;;;;3.72;1.70;;;;;;;31.99;14.25;101046.50;4991412;28;20041;-72
2021/05/10 09:23:44;;;;;;;2.45;1.80;;;;;;;32.15;14.29;101051.50;5009737;28;20117;-71
2021/05/10 09:26:13;;;;;;;2.83;1.52;;;;;;;31.62;14.64;101037.00;5009796;28;20124;-71
2021/05/10 09:28:44;;;;;;;3.75;1.50;;;;;;;31.08;14.85;101030.72;4992652;28;20053;-70
2021/05/10 09:31:12;;;;;;;7.80;1.45;;;;;;;30.98;14.80;101035.25;4978303;28;20045;-71
2021/05/10 09:33:46;;;;;;;3.13;1.50;;;;;;;31.43;14.09;101024.97;5009980;28;20048;-71
2021/05/10 09:36:37;;;;;;;6.53;1.60;;;;;;;32.05;13.80;101026.75;5009423;28;20076;-71
2021/05/10 09:39:27;;;;;;;4.43;1.50;;;;;;;32.35;13.99;101048.72;5009421;28;20048;-70
2021/05/10 09:42:01;;;;;;;3.40;1.75;;;;;;;32.39;13.84;101041.09;4982311;28;20054;-71
2021/05/10 09:44:40;;;;;;;2.47;1.80;;;;;;;32.69;13.77;101035.56;5026512;28;20094;-67
2021/05/10 09:47:07;;;;;;;3.08;1.50;;;;;;;32.85;13.54;101028.53;4993268;28;20128;-69
2021/05/10 09:49:51;;;;;;;5.45;1.60;;;;;;;32.21;14.01;101032.59;4977212;28;20049;-68
2021/05/10 09:52:27;;;;;;;4.80;1.63;;;;;;;30.43;15.15;101027.13;5009811;28;20109;-70
2021/05/10 09:55:01;;;;;;;3.10;1.30;;;;;;;33.17;13.70;101025.53;4993030;28;20049;-75
2021/05/10 09:57:29;;;;;;;4.70;1.55;;;;;;;34.03;13.21;101023.59;5025685;28;20049;-77
2021/05/10 10:00:19;;;;;;;3.17;1.60;;;;;;;32.21;14.10;101018.88;5012146;28;20095;-80
2021/05/10 10:02:45;;;;;;;4.22;1.30;;;;;;;31.03;14.63;101002.84;5025581;28;20167;-72
2021/05/10 10:05:12;;;;;;;6.57;1.70;;;;;;;31.33;15.07;101013.94;5027307;28;20509;-70
2021/05/10 10:07:39;;;;;;;3.65;1.40;;;;;;;32.04;13.65;101005.78;5009175;28;20132;-71
2021/05/10 10:10:06;;;;;;;4.57;1.63;;;;;;;32.60;13.72;101008.94;5027017;28;20049;-69
2021/05/10 10:12:33;;;;;;;4.28;1.50;;;;;;;33.35;13.25;101022.97;5008345;28;20080;-69
2021/05/10 10:14:59;;;;;;;7.32;1.58;;;;;;;34.10;13.08;101016.50;4993155;28;20057;-72
2021/05/10 10:17:26;;;;;;;1.90;1.60;;;;;;;33.00;13.43;101029.00;5027620;28;20084;-74
2021/05/10 10:19:54;;;;;;;5.35;1.60;;;;;;;32.98;13.29;101028.25;5007911;28;20089;-70
2021/05/10 10:22:22;;;;;;;2.15;1.40;;;;;;;33.62;13.68;101028.59;5013099;28;20535;-72
2021/05/10 10:24:49;;;;;;;3.22;1.30;;;;;;;34.62;13.03;101031.50;4980894;28;20652;-72
2021/05/10 10:27:16;;;;;;;7.85;1.50;;;;;;;32.93;12.97;101025.06;5012214;28;20640;-71
2021/05/10 10:29:44;;;;;;;5.90;2.00;;;;;;;31.48;13.69;101020.84;5012631;28;20038;-73
2021/05/10 10:32:16;;;;;;;4.18;1.58;;;;;;;32.77;13.49;101030.22;5031472;28;20062;-72
2021/05/10 10:34:46;;;;;;;7.25;1.40;;;;;;;33.57;12.92;101041.94;5012757;28;20390;-71
2021/05/10 10:37:14;;;;;;;5.30;1.35;;;;;;;33.92;12.92;101039.41;5031170;28;20051;-71
2021/05/10 10:39:57;;;;;;;1.65;1.20;;;;;;;32.97;13.36;101035.66;4980648;28;20081;-71
2021/05/10 10:42:31;;;;;;;5.57;1.70;;;;;;;32.49;13.52;101023.66;5011740;28;20056;-73
2021/05/10 10:45:02;;;;;;;5.78;1.60;;;;;;;33.31;13.65;101019.63;5013504;28;20045;-73
2021/05/10 10:47:46;;;;;;;4.47;1.48;;;;;;;33.10;13.76;101014.25;5012726;28;20041;-72
2021/05/10 10:50:12;;;;;;;9.48;1.33;;;;;;;33.77;13.43;101014.22;5030631;28;20050;-71
2021/05/10 10:52:55;;;;;;;6.45;1.20;;;;;;;33.84;13.39;101026.41;5030305;28;20298;-75
2021/05/10 10:55:37;;;;;;;2.63;1.48;;;;;;;33.12;12.98;101031.47;5029815;28;20489;-71
2021/05/10 10:58:12;;;;;;;4.18;1.30;;;;;;;33.51;13.30;101026.88;5030325;28;20456;-71
2021/05/10 11:00:56;;;;;;;2.60;1.30;;;;;;;34.12;13.12;101017.19;4978292;28;20144;-71
2021/05/10 11:03:26;;;;;;;3.35;1.55;;;;;;;33.59;13.16;101012.38;5030821;28;20053;-72
2021/05/10 11:05:52;;;;;;;7.28;1.70;;;;;;;33.30;13.97;101035.25;5028284;28;20052;-71
2021/05/10 11:08:43;;;;;;;1.20;1.10;;;;;;;32.45;13.33;101019.44;4980177;28;20037;-72
2021/05/10 11:11:09;;;;;;;2.42;1.10;;;;;;;32.43;13.49;101018.69;5028792;28;20061;-69
2021/05/10 11:13:40;;;;;;;4.07;1.48;;;;;;;33.05;13.60;101019.31;5029999;28;20452;-71
2021/05/10 11:16:11;;;;;;;2.77;1.40;;;;;;;32.84;13.90;101024.06;5030188;28;20060;-71
2021/05/10 11:18:53;;;;;;;4.60;1.35;;;;;;;31.64;13.88;101023.16;5018032;28;20152;-71
2021/05/10 11:21:22;;;;;;;7.53;1.27;;;;;;;31.31;14.12;101015.06;5033152;28;20044;-72
2021/05/10 11:23:53;;;;;;;1.38;0.95;;;;;;;30.39;14.57;101006.47;5032321;28;20044;-72
2021/05/10 11:26:38;;;;;;;4.63;1.60;;;;;;;29.91;15.33;101013.16;5014077;28;20049;-71
2021/05/10 11:29:18;;;;;;;2.88;1.45;;;;;;;30.07;15.01;101012.78;4996028;28;20037;-73
2021/05/10 11:31:44;;;;;;;4.50;1.30;;;;;;;28.68;15.53;101011.91;5027208;28;20072;-71
2021/05/10 11:34:15;;;;;;;5.07;1.27;;;;;;;28.44;15.68;101006.38;5039030;28;20083;-69
2021/05/10 11:36:49;;;;;;;5.15;1.50;;;;;;;28.37;15.88;101001.47;5019460;28;20051;-70